Grand Strand Airport
KCRE : now visible

Airfield :











YOU CAN JOIN US ON...

 
LOGIN :

Register | Disclaimer

   EN    FR    IT 

 









Legend :    VFR   Marginal VFR   IFR   Intensive IFR   Very Intensive IFR
Visi :
Ceiling :
>= 8 km
>= 3000ft
5 to 8 km
1000 to 3000 ft
1500m to 5 km
500 to 1000 ft
800 to 1500m
200 to 500 ft
< 800m
< 200 ft
Symbols :   Thunderstorms  Fog  Heavy snow  Heavy precipitations  Wind > 20 kt






- Airport Elevation : 32 ft


KCRE - Grand Strand

CURRENT METAR :
  • 192253Z 36004KT 10SM FEW027 12/09 A2985 RMK AO1 SLP109 T01170089

EXPIRED METARs :
  • 192153Z 00000KT 10SM FEW031 14/09 A2983 RMK AO1 SLP103 T01390094
  • 192053Z 30003KT 10SM FEW025 BKN034 BKN043 15/10 A2984 RMK AO1 SLP105 T01500100 53008
  • 192027Z VRB03KT 10SM SCT024 BKN038 14/10 A2982 RMK AO1 T01440100
  • 192013Z 23003KT 10SM BKN024 BKN037 BKN110 14/10 A2982 RMK AO1 T01440100
  • 191953Z 00000KT 10SM BKN100 15/10 A2981 RMK AO1 SLP094 T01500100

TAF KCRE
Valid from the 19 at 19:00 until the 20 at 18:00 UTC


191922Z 1919/2018 33004KT P6SM BKN100
TEMPO 1919/1922 BKN025
FM200900 00000KT P6SM BKN020
FM201400 31009KT P6SM SKC



MET'MAP, your aeronautical weather chart ! - Copyright ORBIFLY December 2007 - Disclaimer

ORBIFLY MET'MAP TEAM :

Programming & Development : Alexandra Zaïnal
Concept & Development : Baudouin d'Aumeries
Co-Development & Prog : Marc-Olivier Méhu
Technical & hardware support : Manuel Goepfert

Contact : metmap@orbifly.com




SOURCES & CREDITS :

   NOAA       Earth
Advisory